Time;durP1;ratioP1;P1;durP2;ratioP2;P2;SDS_P1;SDS_P2;PMS_P1;PMS_P2;Temp;Humidity;BMP_temperature;BMP_pressure;BME280_temperature;BME280_humidity;BME280_pressure;Samples;Min_cycle;Max_cycle;Signal;HPM_P1;HPM_P2
2022/07/18 00:01:07;;;;;;;;;;;;;;;;;;4890739;29;20325;-77
2022/07/18 00:03:35;;;;;;;;;;;;;;;;;;4890988;29;20045;-76
2022/07/18 00:06:02;;;;;;;;;;;;;;;;;;4891909;29;19923;-77
2022/07/18 00:08:29;;;;;;;;;;;;;;;;;;4908750;29;20310;-77
2022/07/18 00:10:56;;;;;;;;;;;;;;;;;;4895837;29;19924;-77
2022/07/18 00:13:24;;;;;;;;;;;;;;;;;;4895435;29;19958;-77
2022/07/18 00:15:51;;;;;;;;;;;;;;;;;;4894028;29;20710;-77
2022/07/18 00:18:19;;;;;;;;;;;;;;;;;;4893129;29;20348;-77
2022/07/18 00:20:47;;;;;;;;;;;;;;;;;;4908599;29;20372;-76
2022/07/18 00:23:14;;;;;;;;;;;;;;;;;;4891906;29;19928;-77
2022/07/18 00:25:41;;;;;;;;;;;;;;;;;;4908118;29;20149;-77
2022/07/18 00:28:11;;;;;;;;;;;;;;;;;;4894745;29;19927;-76
2022/07/18 00:30:38;;;;;;;;;;;;;;;;;;4888075;29;19954;-78
2022/07/18 00:33:05;;;;;;;;;;;;;;;;;;4890886;29;19923;-78
2022/07/18 00:35:33;;;;;;;;;;;;;;;;;;4893691;29;20022;-78
2022/07/18 00:38:01;;;;;;;;;;;;;;;;;;4892752;29;20419;-78
2022/07/18 00:40:29;;;;;;;;;;;;;;;;;;4888182;29;19973;-78
2022/07/18 00:42:56;;;;;;;;;;;;;;;;;;4889378;29;19924;-78
2022/07/18 00:45:24;;;;;;;;;;;;;;;;;;4895014;29;19923;-77
2022/07/18 00:47:51;;;;;;;;;;;;;;;;;;4891574;29;20510;-77
2022/07/18 00:50:18;;;;;;;;;;;;;;;;;;4887347;29;20550;-77
2022/07/18 00:52:46;;;;;;;;;;;;;;;;;;4886252;29;20022;-77
2022/07/18 00:55:14;;;;;;;;;;;;;;;;;;4885204;29;20577;-79
2022/07/18 00:57:45;;;;;;;;;;;;;;;;;;4863191;29;20019;-77
2022/07/18 01:02:59;;;;;;;;;;;;;;;;;;4877893;29;19931;-79
2022/07/18 01:05:26;;;;;;;;;;;;;;;;;;4880541;29;20225;-76
2022/07/18 01:07:53;;;;;;;;;;;;;;;;;;4878649;29;19927;-76
2022/07/18 01:10:21;;;;;;;;;;;;;;;;;;4881906;29;20018;-77
2022/07/18 01:12:48;;;;;;;;;;;;;;;;;;4887765;29;20803;-77
2022/07/18 01:15:15;;;;;;;;;;;;;;;;;;4889718;29;20463;-77
2022/07/18 01:17:43;;;;;;;;;;;;;;;;;;4888664;29;19927;-78
2022/07/18 01:20:10;;;;;;;;;;;;;;;;;;4872233;29;20031;-77
2022/07/18 01:22:40;;;;;;;;;;;;;;;;;;4884406;29;20384;-77
2022/07/18 01:25:07;;;;;;;;;;;;;;;;;;4896983;29;19926;-77
2022/07/18 01:27:34;;;;;;;;;;;;;;;;;;4907019;29;20030;-77
2022/07/18 01:30:01;;;;;;;;;;;;;;;;;;4888043;29;19989;-77
2022/07/18 01:32:29;;;;;;;;;;;;;;;;;;4891801;29;19927;-77
2022/07/18 01:34:56;;;;;;;;;;;;;;;;;;4884670;29;20368;-76
2022/07/18 01:37:23;;;;;;;;;;;;;;;;;;4872531;29;20018;-77
2022/07/18 01:39:51;;;;;;;;;;;;;;;;;;4892927;29;19934;-78
2022/07/18 01:42:18;;;;;;;;;;;;;;;;;;4863331;29;19927;-78
2022/07/18 01:44:45;;;;;;;;;;;;;;;;;;4891890;29;19927;-78
2022/07/18 01:47:13;;;;;;;;;;;;;;;;;;4891989;29;19927;-78
2022/07/18 01:49:40;;;;;;;;;;;;;;;;;;4889373;29;19923;-78
2022/07/18 01:52:07;;;;;;;;;;;;;;;;;;4888518;29;19927;-77
2022/07/18 01:54:35;;;;;;;;;;;;;;;;;;4906834;29;19923;-78
2022/07/18 01:57:02;;;;;;;;;;;;;;;;;;4888303;29;20030;-78
2022/07/18 01:59:29;;;;;;;;;;;;;;;;;;4909448;29;19935;-78
2022/07/18 02:01:57;;;;;;;;;;;;;;;;;;4891929;29;19923;-77
2022/07/18 02:04:59;;;;;;;;;;;;;;;;;;4891072;29;19931;-77
2022/07/18 02:07:11;;;;;;;;;;;;;;;;;;4887198;29;19971;-78
2022/07/18 02:09:38;;;;;;;;;;;;;;;;;;4892740;29;20018;-77
2022/07/18 02:12:06;;;;;;;;;;;;;;;;;;4893155;29;19923;-77
2022/07/18 02:14:33;;;;;;;;;;;;;;;;;;4884137;29;20292;-78
2022/07/18 02:17:00;;;;;;;;;;;;;;;;;;4886445;29;19987;-78
2022/07/18 02:19:28;;;;;;;;;;;;;;;;;;4890708;29;20046;-78
2022/07/18 02:21:55;;;;;;;;;;;;;;;;;;4884184;29;19960;-78
2022/07/18 02:24:22;;;;;;;;;;;;;;;;;;4896230;29;20018;-78
2022/07/18 02:26:49;;;;;;;;;;;;;;;;;;4890236;29;19963;-78
2022/07/18 02:29:17;;;;;;;;;;;;;;;;;;4888821;29;19927;-78
2022/07/18 02:31:44;;;;;;;;;;;;;;;;;;4888393;29;20413;-78
2022/07/18 02:34:11;;;;;;;;;;;;;;;;;;4892454;29;19927;-78
2022/07/18 02:36:38;;;;;;;;;;;;;;;;;;4889179;29;20504;-78
2022/07/18 02:39:06;;;;;;;;;;;;;;;;;;4889748;29;19927;-77
2022/07/18 02:41:33;;;;;;;;;;;;;;;;;;4890885;29;19966;-78
2022/07/18 02:44:00;;;;;;;;;;;;;;;;;;4891913;29;20053;-78
2022/07/18 02:46:28;;;;;;;;;;;;;;;;;;4889605;29;19928;-78
2022/07/18 02:48:55;;;;;;;;;;;;;;;;;;4891655;29;19933;-78
2022/07/18 02:51:23;;;;;;;;;;;;;;;;;;4887734;23;19935;-76
2022/07/18 02:53:50;;;;;;;;;;;;;;;;;;4889550;29;19927;-76
2022/07/18 02:56:17;;;;;;;;;;;;;;;;;;4887380;29;19923;-76
2022/07/18 02:58:44;;;;;;;;;;;;;;;;;;4890424;29;20295;-77
2022/07/18 03:01:12;;;;;;;;;;;;;;;;;;4892439;29;19927;-76
2022/07/18 03:03:39;;;;;;;;;;;;;;;;;;4891376;29;19924;-76
2022/07/18 03:06:06;;;;;;;;;;;;;;;;;;4886793;29;20392;-77
2022/07/18 03:08:34;;;;;;;;;;;;;;;;;;4891414;29;20141;-76
2022/07/18 03:11:01;;;;;;;;;;;;;;;;;;4891218;29;20029;-77
2022/07/18 03:13:28;;;;;;;;;;;;;;;;;;4902872;29;19933;-76
2022/07/18 03:15:55;;;;;;;;;;;;;;;;;;4890091;29;19933;-77
2022/07/18 03:18:24;;;;;;;;;;;;;;;;;;4890963;29;19942;-77
2022/07/18 03:20:52;;;;;;;;;;;;;;;;;;4891552;29;20033;-76
2022/07/18 03:23:19;;;;;;;;;;;;;;;;;;4904122;29;20415;-76
2022/07/18 03:25:46;;;;;;;;;;;;;;;;;;4885535;29;20403;-77
2022/07/18 03:28:14;;;;;;;;;;;;;;;;;;4875796;29;20091;-76
2022/07/18 03:30:42;;;;;;;;;;;;;;;;;;4886501;29;19931;-76
2022/07/18 03:33:09;;;;;;;;;;;;;;;;;;4891632;29;19927;-76
2022/07/18 03:35:37;;;;;;;;;;;;;;;;;;4899705;29;19927;-76
2022/07/18 03:38:05;;;;;;;;;;;;;;;;;;4889335;29;20184;-76
2022/07/18 03:40:32;;;;;;;;;;;;;;;;;;4893511;29;19938;-76
2022/07/18 03:43:01;;;;;;;;;;;;;;;;;;4895116;29;19990;-77
2022/07/18 03:45:28;;;;;;;;;;;;;;;;;;4873913;29;19995;-76
2022/07/18 03:47:55;;;;;;;;;;;;;;;;;;4892906;29;19928;-77
2022/07/18 03:50:22;;;;;;;;;;;;;;;;;;4892397;29;19978;-76
2022/07/18 03:52:50;;;;;;;;;;;;;;;;;;4894442;29;20022;-77
2022/07/18 03:55:17;;;;;;;;;;;;;;;;;;4892301;29;19934;-77
2022/07/18 03:57:44;;;;;;;;;;;;;;;;;;4899037;29;20426;-77
2022/07/18 04:00:12;;;;;;;;;;;;;;;;;;4893310;29;20014;-77
2022/07/18 04:02:39;;;;;;;;;;;;;;;;;;4892492;29;19935;-76
2022/07/18 04:05:06;;;;;;;;;;;;;;;;;;4892649;29;19975;-76
2022/07/18 04:07:34;;;;;;;;;;;;;;;;;;4886835;29;19927;-77
2022/07/18 04:10:01;;;;;;;;;;;;;;;;;;4887184;29;20415;-76
2022/07/18 04:12:29;;;;;;;;;;;;;;;;;;4886135;29;20046;-77
2022/07/18 04:14:56;;;;;;;;;;;;;;;;;;4889848;29;20527;-77
2022/07/18 04:17:23;;;;;;;;;;;;;;;;;;4888090;29;19932;-77
2022/07/18 04:19:50;;;;;;;;;;;;;;;;;;4886737;29;19923;-78
2022/07/18 04:22:18;;;;;;;;;;;;;;;;;;4889293;29;20311;-78
2022/07/18 04:24:46;;;;;;;;;;;;;;;;;;4890806;29;19927;-77
2022/07/18 04:27:19;;;;;;;;;;;;;;;;;;4889237;29;19963;-77
2022/07/18 04:29:47;;;;;;;;;;;;;;;;;;4889052;29;20006;-77
2022/07/18 04:32:14;;;;;;;;;;;;;;;;;;4888398;29;19967;-76
2022/07/18 04:34:41;;;;;;;;;;;;;;;;;;4886226;29;19998;-77
2022/07/18 04:37:09;;;;;;;;;;;;;;;;;;4890617;29;19979;-77
2022/07/18 04:39:36;;;;;;;;;;;;;;;;;;4891591;29;20014;-77
2022/07/18 04:42:04;;;;;;;;;;;;;;;;;;4890889;29;19975;-77
2022/07/18 04:44:31;;;;;;;;;;;;;;;;;;4893026;29;19966;-77
2022/07/18 04:46:58;;;;;;;;;;;;;;;;;;4894860;29;19935;-75
2022/07/18 04:49:26;;;;;;;;;;;;;;;;;;4892984;29;19931;-77
2022/07/18 04:51:53;;;;;;;;;;;;;;;;;;4885487;29;20376;-77
2022/07/18 04:54:20;;;;;;;;;;;;;;;;;;4890112;29;19943;-77
2022/07/18 04:56:48;;;;;;;;;;;;;;;;;;4887012;29;21172;-76
2022/07/18 04:59:15;;;;;;;;;;;;;;;;;;4889343;29;20384;-77
2022/07/18 05:01:42;;;;;;;;;;;;;;;;;;4901859;29;19958;-77
2022/07/18 05:04:09;;;;;;;;;;;;;;;;;;4892378;29;19931;-76
2022/07/18 05:06:37;;;;;;;;;;;;;;;;;;4893765;29;20022;-76
2022/07/18 05:09:04;;;;;;;;;;;;;;;;;;4908252;29;19927;-76
2022/07/18 05:11:31;;;;;;;;;;;;;;;;;;4908601;29;20312;-76
2022/07/18 05:13:59;;;;;;;;;;;;;;;;;;4894370;29;20288;-77
2022/07/18 05:16:26;;;;;;;;;;;;;;;;;;4892408;29;19927;-76
2022/07/18 05:18:53;;;;;;;;;;;;;;;;;;4902786;29;20374;-76
2022/07/18 05:21:21;;;;;;;;;;;;;;;;;;4892794;29;19927;-77
2022/07/18 05:23:48;;;;;;;;;;;;;;;;;;4892504;29;19934;-77
2022/07/18 05:26:15;;;;;;;;;;;;;;;;;;4908270;29;19931;-77
2022/07/18 05:28:43;;;;;;;;;;;;;;;;;;4892549;29;19927;-76
2022/07/18 05:31:10;;;;;;;;;;;;;;;;;;4893191;29;19928;-76
2022/07/18 05:33:37;;;;;;;;;;;;;;;;;;4891519;29;20010;-77
2022/07/18 05:36:05;;;;;;;;;;;;;;;;;;4893603;29;20487;-77
2022/07/18 05:38:32;;;;;;;;;;;;;;;;;;4892142;29;19930;-77
2022/07/18 05:40:59;;;;;;;;;;;;;;;;;;4907137;29;19931;-77
2022/07/18 05:43:26;;;;;;;;;;;;;;;;;;4892814;29;19929;-76
2022/07/18 05:45:54;;;;;;;;;;;;;;;;;;4906511;29;20503;-77
2022/07/18 05:48:21;;;;;;;;;;;;;;;;;;4891393;29;19933;-77
2022/07/18 05:50:48;;;;;;;;;;;;;;;;;;4892398;29;20018;-77
2022/07/18 05:53:15;;;;;;;;;;;;;;;;;;4900687;29;20293;-77
2022/07/18 05:55:43;;;;;;;;;;;;;;;;;;4916764;29;20414;-77
2022/07/18 05:58:10;;;;;;;;;;;;;;;;;;4893854;29;19933;-77
2022/07/18 06:00:37;;;;;;;;;;;;;;;;;;4885346;29;20357;-77
2022/07/18 06:03:04;;;;;;;;;;;;;;;;;;4888667;29;19927;-77
2022/07/18 06:05:33;;;;;;;;;;;;;;;;;;4898446;29;20384;-76
2022/07/18 06:08:00;;;;;;;;;;;;;;;;;;4882057;29;19928;-77
2022/07/18 06:10:27;;;;;;;;;;;;;;;;;;4891317;29;20407;-77
2022/07/18 06:12:55;;;;;;;;;;;;;;;;;;4881881;29;19975;-77
2022/07/18 06:15:22;;;;;;;;;;;;;;;;;;4902186;29;20018;-76
2022/07/18 06:17:49;;;;;;;;;;;;;;;;;;4890504;29;19924;-77
2022/07/18 06:20:17;;;;;;;;;;;;;;;;;;4890467;29;19923;-77
2022/07/18 06:22:44;;;;;;;;;;;;;;;;;;4887056;29;19931;-77
2022/07/18 06:25:11;;;;;;;;;;;;;;;;;;4899920;29;20034;-77
2022/07/18 06:27:39;;;;;;;;;;;;;;;;;;4887945;29;19927;-77
2022/07/18 06:30:07;;;;;;;;;;;;;;;;;;4885800;29;20292;-77
2022/07/18 06:32:34;;;;;;;;;;;;;;;;;;4889032;29;19938;-76
2022/07/18 06:35:05;;;;;;;;;;;;;;;;;;4890777;29;20315;-77
2022/07/18 06:37:33;;;;;;;;;;;;;;;;;;4891656;29;19958;-76
2022/07/18 06:40:00;;;;;;;;;;;;;;;;;;4891835;29;19931;-76
2022/07/18 06:42:29;;;;;;;;;;;;;;;;;;4890049;29;19983;-77
2022/07/18 06:44:56;;;;;;;;;;;;;;;;;;4890010;29;19966;-77
2022/07/18 06:47:24;;;;;;;;;;;;;;;;;;4892482;29;19957;-77
2022/07/18 06:49:51;;;;;;;;;;;;;;;;;;4889990;29;20077;-78
2022/07/18 06:52:20;;;;;;;;;;;;;;;;;;4892963;29;20026;-76
2022/07/18 06:54:47;;;;;;;;;;;;;;;;;;4891352;29;20475;-77
2022/07/18 06:57:14;;;;;;;;;;;;;;;;;;4891162;29;19930;-77
2022/07/18 06:59:42;;;;;;;;;;;;;;;;;;4890916;29;19983;-77
2022/07/18 07:02:16;;;;;;;;;;;;;;;;;;4891356;29;20010;-76
2022/07/18 07:04:43;;;;;;;;;;;;;;;;;;4889674;29;20383;-76
2022/07/18 07:07:10;;;;;;;;;;;;;;;;;;4889244;29;19931;-76
2022/07/18 07:09:37;;;;;;;;;;;;;;;;;;4891099;29;19970;-77
2022/07/18 07:12:05;;;;;;;;;;;;;;;;;;4889960;29;19979;-77
2022/07/18 07:14:33;;;;;;;;;;;;;;;;;;4882476;29;20344;-77
2022/07/18 07:17:00;;;;;;;;;;;;;;;;;;4889872;29;19991;-76
2022/07/18 07:19:27;;;;;;;;;;;;;;;;;;4906036;29;19967;-76
2022/07/18 07:21:55;;;;;;;;;;;;;;;;;;4870894;29;20437;-77
2022/07/18 07:24:22;;;;;;;;;;;;;;;;;;4889327;29;19941;-76
2022/07/18 07:26:49;;;;;;;;;;;;;;;;;;4878956;29;20420;-77
2022/07/18 07:29:22;;;;;;;;;;;;;;;;;;4889120;29;19979;-77
2022/07/18 07:31:49;;;;;;;;;;;;;;;;;;4890174;29;19934;-77
2022/07/18 07:34:16;;;;;;;;;;;;;;;;;;4891939;29;19962;-76
2022/07/18 07:36:44;;;;;;;;;;;;;;;;;;4921391;29;20030;-78
2022/07/18 07:39:11;;;;;;;;;;;;;;;;;;4889845;29;20014;-77
2022/07/18 07:41:38;;;;;;;;;;;;;;;;;;4889935;29;19934;-77
2022/07/18 07:44:06;;;;;;;;;;;;;;;;;;4901796;29;19928;-76
2022/07/18 07:46:33;;;;;;;;;;;;;;;;;;4890221;29;20613;-75
2022/07/18 07:49:00;;;;;;;;;;;;;;;;;;4891742;29;20011;-75
2022/07/18 07:51:30;;;;;;;;;;;;;;;;;;4887661;29;19928;-77
2022/07/18 07:54:01;;;;;;;;;;;;;;;;;;4883261;29;19961;-77
2022/07/18 07:56:28;;;;;;;;;;;;;;;;;;4884206;29;20315;-78
2022/07/18 07:59:01;;;;;;;;;;;;;;;;;;4889104;29;19934;-76
2022/07/18 08:01:28;;;;;;;;;;;;;;;;;;4905219;29;19947;-77
2022/07/18 08:03:55;;;;;;;;;;;;;;;;;;4882363;29;20353;-77
2022/07/18 08:06:23;;;;;;;;;;;;;;;;;;4890287;29;19979;-76
2022/07/18 08:08:50;;;;;;;;;;;;;;;;;;4889782;29;20030;-77
2022/07/18 08:11:22;;;;;;;;;;;;;;;;;;4890005;29;19971;-77
2022/07/18 08:13:50;;;;;;;;;;;;;;;;;;4887729;29;19930;-77
2022/07/18 08:16:17;;;;;;;;;;;;;;;;;;4885945;29;19931;-78
2022/07/18 08:18:44;;;;;;;;;;;;;;;;;;4886304;29;20322;-77
2022/07/18 08:21:13;;;;;;;;;;;;;;;;;;4884437;29;19934;-77
2022/07/18 08:23:43;;;;;;;;;;;;;;;;;;4888694;29;19931;-77
2022/07/18 08:26:10;;;;;;;;;;;;;;;;;;4902190;29;20387;-76
2022/07/18 08:28:37;;;;;;;;;;;;;;;;;;4892963;29;19946;-76
2022/07/18 08:31:04;;;;;;;;;;;;;;;;;;4892484;29;20537;-77
2022/07/18 08:33:32;;;;;;;;;;;;;;;;;;4892465;29;19966;-76
2022/07/18 08:35:59;;;;;;;;;;;;;;;;;;4905419;29;19927;-77
2022/07/18 08:38:26;;;;;;;;;;;;;;;;;;4892622;29;19955;-76
2022/07/18 08:40:54;;;;;;;;;;;;;;;;;;4894201;29;19975;-77
2022/07/18 08:43:21;;;;;;;;;;;;;;;;;;4893688;29;20441;-76
2022/07/18 08:45:50;;;;;;;;;;;;;;;;;;4894695;29;19934;-76
2022/07/18 08:48:17;;;;;;;;;;;;;;;;;;4890723;29;19931;-76
2022/07/18 08:54:27;;;;;;;;;;;;;;;;;;4891864;29;19927;-85
2022/07/18 09:04:51;;;;;;;;;;;;;;;;;;;;;
2022/07/18 09:08:21;;;;;;;;;;;;;;;;;;;;;
2022/07/18 09:11:07;;;;;;;;;;;;;;;;;;4834355;29;19928;-85
2022/07/18 09:13:58;;;;;;;;;;;;;;;;;;4780797;29;20553;-86
2022/07/18 09:16:59;;;;;;;;;;;;;;;;;;;;;
2022/07/18 09:20:21;;;;;;;;;;;;;;;;;;4851103;29;19924;-85
2022/07/18 09:23:02;;;;;;;;;;;;;;;;;;4892966;29;19975;-85
2022/07/18 09:26:41;;;;;;;;;;;;;;;;;;4822012;29;20587;-84
2022/07/18 09:29:16;;;;;;;;;;;;;;;;;;4835541;29;20404;-85
2022/07/18 09:32:16;;;;;;;;;;;;;;;;;;4836661;29;20512;-86
2022/07/18 09:34:47;;;;;;;;;;;;;;;;;;4840392;29;20426;-85
2022/07/18 09:37:36;;;;;;;;;;;;;;;;;;4838057;29;19931;-86
2022/07/18 09:40:28;;;;;;;;;;;;;;;;;;4853403;29;19984;-84
2022/07/18 09:43:33;;;;;;;;;;;;;;;;;;4869362;29;19927;-85
2022/07/18 09:50:18;;;;;;;;;;;;;;;;;;4877272;29;20526;-85
2022/07/18 09:57:10;;;;;;;;;;;;;;;;;;4817740;29;19931;-85
2022/07/18 10:04:09;;;;;;;;;;;;;;;;;;4819597;29;19924;-85
2022/07/18 10:22:54;;;;;;;;;;;;;;;;;;;;;
2022/07/18 10:26:25;;;;;;;;;;;;;;;;;;4669465;30;19932;-86
2022/07/18 10:36:16;;;;;;;;;;;;;;;;;;4712910;30;19917;-85
2022/07/18 10:43:52;;;;;;;;;;;;;;;;;;4702600;30;19933;-85
2022/07/18 11:01:45;;;;;;;;;;;;;;;;;;4746378;30;19930;-86
2022/07/18 11:05:09;;;;;;;;;;;;;;;;;;4777641;29;19933;-86
2022/07/18 11:38:19;;;;;;;;;;;;;;;;;;5082341;27;19920;-77
2022/07/18 11:40:46;;;;;;;;;;;;;;;;;;5062280;28;19982;-77
2022/07/18 11:43:13;;;;;;;;;;;;;;;;;;5059777;28;19950;-77
2022/07/18 11:45:40;;;;;;;;;;;;;;;;;;5047407;28;19967;-78
2022/07/18 11:48:08;;;;;;;;;;;;;;;;;;5054470;28;20444;-78
2022/07/18 11:50:35;;;;;;;;;;;;;;;;;;5051083;28;19939;-77
2022/07/18 11:53:02;;;;;;;;;;;;;;;;;;5055763;28;19933;-78
2022/07/18 11:55:29;;;;;;;;;;;;;;;;;;5052999;28;19975;-77
2022/07/18 11:57:57;;;;;;;;;;;;;;;;;;5054335;28;20180;-77
2022/07/18 12:00:24;;;;;;;;;;;;;;;;;;5059228;28;20023;-78
2022/07/18 12:02:51;;;;;;;;;;;;;;;;;;5055155;28;22093;-78
2022/07/18 12:05:19;;;;;;;;;;;;;;;;;;5055057;28;19931;-77
2022/07/18 12:07:46;;;;;;;;;;;;;;;;;;5056097;28;19928;-78
2022/07/18 12:10:13;;;;;;;;;;;;;;;;;;5056425;28;20537;-78
2022/07/18 12:12:40;;;;;;;;;;;;;;;;;;5056255;28;20682;-78
2022/07/18 12:15:08;;;;;;;;;;;;;;;;;;5053224;28;19941;-78
2022/07/18 12:17:35;;;;;;;;;;;;;;;;;;5057273;28;20023;-78
2022/07/18 12:20:02;;;;;;;;;;;;;;;;;;5056847;28;19932;-79
2022/07/18 12:22:30;;;;;;;;;;;;;;;;;;5052325;28;19929;-79
2022/07/18 12:24:59;;;;;;;;;;;;;;;;;;5054475;28;19951;-77
2022/07/18 12:27:26;;;;;;;;;;;;;;;;;;5057556;28;19932;-78
2022/07/18 12:29:54;;;;;;;;;;;;;;;;;;5054407;28;20384;-78
2022/07/18 12:32:21;;;;;;;;;;;;;;;;;;5052841;28;19933;-78
2022/07/18 12:34:49;;;;;;;;;;;;;;;;;;5058675;28;20305;-79
2022/07/18 12:37:16;;;;;;;;;;;;;;;;;;5056465;28;19931;-78
2022/07/18 12:39:43;;;;;;;;;;;;;;;;;;5046370;28;20010;-79
2022/07/18 12:42:30;;;;;;;;;;;;;;;;;;5053551;28;19946;-78
2022/07/18 12:44:58;;;;;;;;;;;;;;;;;;5054055;28;20325;-78
2022/07/18 12:47:25;;;;;;;;;;;;;;;;;;5054525;28;19925;-78
2022/07/18 12:49:52;;;;;;;;;;;;;;;;;;5039250;28;19939;-79
2022/07/18 12:52:20;;;;;;;;;;;;;;;;;;5048656;28;19941;-79
2022/07/18 12:55:15;;;;;;;;;;;;;;;;;;5042272;28;19925;-78
2022/07/18 12:57:42;;;;;;;;;;;;;;;;;;5011763;28;20293;-78
2022/07/18 13:00:10;;;;;;;;;;;;;;;;;;5046388;28;19939;-78
2022/07/18 13:02:37;;;;;;;;;;;;;;;;;;5047321;28;19925;-78
2022/07/18 13:05:05;;;;;;;;;;;;;;;;;;5043781;28;19935;-78
2022/07/18 13:07:32;;;;;;;;;;;;;;;;;;5047018;28;19937;-78
2022/07/18 13:09:59;;;;;;;;;;;;;;;;;;5042575;28;19956;-78
2022/07/18 13:12:26;;;;;;;;;;;;;;;;;;5049050;28;19939;-79
2022/07/18 13:14:54;;;;;;;;;;;;;;;;;;5046738;28;20035;-78
2022/07/18 13:17:21;;;;;;;;;;;;;;;;;;5034667;28;19955;-78
2022/07/18 13:19:53;;;;;;;;;;;;;;;;;;5036289;28;19964;-78
2022/07/18 13:22:21;;;;;;;;;;;;;;;;;;5046671;28;20023;-78
2022/07/18 13:24:49;;;;;;;;;;;;;;;;;;5033628;28;19933;-78
2022/07/18 13:27:18;;;;;;;;;;;;;;;;;;5012836;28;19935;-78
2022/07/18 13:29:46;;;;;;;;;;;;;;;;;;5047636;28;20023;-78
2022/07/18 13:32:14;;;;;;;;;;;;;;;;;;5048389;28;19935;-77
2022/07/18 13:34:41;;;;;;;;;;;;;;;;;;5044122;28;19929;-78
2022/07/18 13:37:09;;;;;;;;;;;;;;;;;;5046944;28;19929;-78
2022/07/18 13:39:36;;;;;;;;;;;;;;;;;;5061827;28;19931;-79
2022/07/18 13:42:05;;;;;;;;;;;;;;;;;;5052892;28;19929;-78
2022/07/18 13:44:32;;;;;;;;;;;;;;;;;;5060701;28;20396;-79
2022/07/18 13:46:59;;;;;;;;;;;;;;;;;;5067488;28;19928;-78
2022/07/18 13:49:27;;;;;;;;;;;;;;;;;;5065996;28;19924;-78
2022/07/18 13:51:54;;;;;;;;;;;;;;;;;;5053625;28;20050;-78
2022/07/18 13:54:21;;;;;;;;;;;;;;;;;;5067498;28;19936;-78
2022/07/18 13:56:48;;;;;;;;;;;;;;;;;;5065034;28;20046;-78
2022/07/18 13:59:16;;;;;;;;;;;;;;;;;;5066393;28;19928;-78
2022/07/18 14:01:43;;;;;;;;;;;;;;;;;;5068754;28;19971;-78
2022/07/18 14:04:10;;;;;;;;;;;;;;;;;;5066721;28;19928;-77
2022/07/18 14:06:39;;;;;;;;;;;;;;;;;;5067268;28;20335;-78
2022/07/18 14:09:07;;;;;;;;;;;;;;;;;;5067946;28;20428;-78
2022/07/18 14:11:34;;;;;;;;;;;;;;;;;;5064021;28;19959;-77
2022/07/18 14:14:01;;;;;;;;;;;;;;;;;;5067232;28;20393;-78
2022/07/18 14:16:29;;;;;;;;;;;;;;;;;;5061757;28;19932;-78
2022/07/18 14:18:57;;;;;;;;;;;;;;;;;;5051607;28;20017;-77
2022/07/18 14:21:24;;;;;;;;;;;;;;;;;;5051279;28;19924;-78
2022/07/18 14:23:51;;;;;;;;;;;;;;;;;;5054870;28;20126;-78
2022/07/18 14:26:19;;;;;;;;;;;;;;;;;;5042488;28;20019;-79
2022/07/18 14:28:48;;;;;;;;;;;;;;;;;;5040643;28;19943;-79
2022/07/18 14:31:15;;;;;;;;;;;;;;;;;;5057574;28;19925;-78
2022/07/18 14:33:42;;;;;;;;;;;;;;;;;;5049611;28;20054;-79
2022/07/18 14:36:10;;;;;;;;;;;;;;;;;;5054373;28;19964;-80
2022/07/18 14:38:39;;;;;;;;;;;;;;;;;;5050807;28;20189;-78
2022/07/18 14:41:06;;;;;;;;;;;;;;;;;;5061718;28;19935;-79
2022/07/18 14:43:34;;;;;;;;;;;;;;;;;;5066352;28;19954;-78
2022/07/18 14:46:01;;;;;;;;;;;;;;;;;;5055841;28;19970;-79
2022/07/18 14:48:31;;;;;;;;;;;;;;;;;;5055645;28;19939;-78
2022/07/18 14:50:58;;;;;;;;;;;;;;;;;;5062340;22;20804;-75
2022/07/18 14:53:25;;;;;;;;;;;;;;;;;;5039236;28;19971;-73
2022/07/18 14:55:52;;;;;;;;;;;;;;;;;;5044637;28;20464;-76
2022/07/18 14:58:20;;;;;;;;;;;;;;;;;;5025771;28;20016;-73
2022/07/18 15:00:47;;;;;;;;;;;;;;;;;;5064892;28;19916;-70
2022/07/18 15:03:14;;;;;;;;;;;;;;;;;;5077365;28;19924;-71
2022/07/18 15:06:01;;;;;;;;;;;;;;;;;;5078531;28;19932;-72
2022/07/18 15:08:29;;;;;;;;;;;;;;;;;;5076867;28;19920;-71
2022/07/18 15:10:56;;;;;;;;;;;;;;;;;;5074795;28;19928;-72
2022/07/18 15:13:23;;;;;;;;;;;;;;;;;;5071160;28;21611;-72
2022/07/18 15:15:52;;;;;;;;;;;;;;;;;;5067355;28;19928;-72
2022/07/18 15:18:19;;;;;;;;;;;;;;;;;;5066967;28;19967;-70
2022/07/18 15:20:46;;;;;;;;;;;;;;;;;;5060299;28;19956;-71
2022/07/18 15:23:14;;;;;;;;;;;;;;;;;;5063820;28;19932;-71
2022/07/18 15:25:44;;;;;;;;;;;;;;;;;;5057317;28;20326;-70
2022/07/18 15:28:12;;;;;;;;;;;;;;;;;;5054827;28;19925;-70
2022/07/18 15:30:40;;;;;;;;;;;;;;;;;;5049275;28;19929;-70
2022/07/18 15:33:12;;;;;;;;;;;;;;;;;;5056003;28;19935;-70
2022/07/18 15:35:40;;;;;;;;;;;;;;;;;;5053118;28;19929;-70
2022/07/18 15:38:07;;;;;;;;;;;;;;;;;;5052960;28;19983;-71
2022/07/18 15:40:34;;;;;;;;;;;;;;;;;;5059752;28;19932;-70
2022/07/18 15:43:02;;;;;;;;;;;;;;;;;;5049602;28;20158;-71
2022/07/18 15:45:29;;;;;;;;;;;;;;;;;;5072405;28;20023;-70
2022/07/18 15:47:56;;;;;;;;;;;;;;;;;;5065071;28;19929;-69
2022/07/18 15:50:23;;;;;;;;;;;;;;;;;;5050389;28;20376;-70
2022/07/18 15:52:51;;;;;;;;;;;;;;;;;;5053930;28;20024;-70
2022/07/18 15:55:18;;;;;;;;;;;;;;;;;;5052780;28;20357;-70
2022/07/18 15:57:46;;;;;;;;;;;;;;;;;;5047082;28;19964;-70
2022/07/18 16:00:13;;;;;;;;;;;;;;;;;;5050359;28;19932;-70
2022/07/18 16:02:41;;;;;;;;;;;;;;;;;;5050683;28;20373;-70
2022/07/18 16:05:08;;;;;;;;;;;;;;;;;;5056656;28;19933;-70
2022/07/18 16:07:35;;;;;;;;;;;;;;;;;;5052288;28;19929;-70
2022/07/18 16:10:03;;;;;;;;;;;;;;;;;;5060737;28;19928;-70
2022/07/18 16:12:30;;;;;;;;;;;;;;;;;;5048740;28;19971;-71
2022/07/18 16:15:01;;;;;;;;;;;;;;;;;;5052905;28;19928;-70
2022/07/18 16:17:28;;;;;;;;;;;;;;;;;;5049605;28;19933;-70
2022/07/18 16:19:56;;;;;;;;;;;;;;;;;;5047349;28;19932;-70
2022/07/18 16:22:23;;;;;;;;;;;;;;;;;;5047893;28;19936;-70
2022/07/18 16:24:50;;;;;;;;;;;;;;;;;;5050660;28;20070;-70
2022/07/18 16:27:18;;;;;;;;;;;;;;;;;;5044703;28;19929;-70
2022/07/18 16:29:45;;;;;;;;;;;;;;;;;;5044727;28;19932;-70
2022/07/18 16:32:17;;;;;;;;;;;;;;;;;;5041562;28;19928;-70
2022/07/18 16:34:44;;;;;;;;;;;;;;;;;;5050676;28;20520;-70
2022/07/18 16:37:11;;;;;;;;;;;;;;;;;;5038916;28;19933;-70
2022/07/18 16:39:38;;;;;;;;;;;;;;;;;;5027034;28;20031;-70
2022/07/18 16:42:06;;;;;;;;;;;;;;;;;;5028444;28;20007;-70
2022/07/18 16:44:33;;;;;;;;;;;;;;;;;;5037563;28;20322;-70
2022/07/18 16:47:00;;;;;;;;;;;;;;;;;;5036009;28;20054;-69
2022/07/18 16:49:28;;;;;;;;;;;;;;;;;;5037328;28;20508;-70
2022/07/18 16:51:56;;;;;;;;;;;;;;;;;;5032616;28;20006;-70
2022/07/18 16:54:23;;;;;;;;;;;;;;;;;;5022230;28;19932;-70
2022/07/18 16:56:52;;;;;;;;;;;;;;;;;;5030237;28;20178;-70
2022/07/18 16:59:20;;;;;;;;;;;;;;;;;;5041326;28;19932;-69
2022/07/18 17:01:47;;;;;;;;;;;;;;;;;;5037862;28;20021;-70
2022/07/18 17:04:15;;;;;;;;;;;;;;;;;;5036861;28;20410;-70
2022/07/18 17:06:42;;;;;;;;;;;;;;;;;;5038646;28;19935;-69
2022/07/18 17:09:10;;;;;;;;;;;;;;;;;;5046446;28;19928;-70
2022/07/18 17:11:37;;;;;;;;;;;;;;;;;;5039208;28;20015;-70
2022/07/18 17:14:04;;;;;;;;;;;;;;;;;;5038274;28;19932;-72
2022/07/18 17:16:32;;;;;;;;;;;;;;;;;;5035990;28;19933;-71
2022/07/18 17:18:59;;;;;;;;;;;;;;;;;;5030167;28;19935;-71
2022/07/18 17:21:27;;;;;;;;;;;;;;;;;;5035397;28;19932;-70
2022/07/18 17:23:54;;;;;;;;;;;;;;;;;;5039087;28;20042;-70
2022/07/18 17:26:22;;;;;;;;;;;;;;;;;;5024264;28;19929;-70
2022/07/18 17:28:49;;;;;;;;;;;;;;;;;;5038356;28;19932;-70
2022/07/18 17:31:17;;;;;;;;;;;;;;;;;;5026822;28;19940;-70
2022/07/18 17:33:45;;;;;;;;;;;;;;;;;;5038531;28;19932;-70
2022/07/18 17:36:13;;;;;;;;;;;;;;;;;;5037053;28;20399;-74
2022/07/18 17:38:40;;;;;;;;;;;;;;;;;;5035926;28;20457;-74
2022/07/18 17:41:08;;;;;;;;;;;;;;;;;;5021877;28;19933;-74
2022/07/18 17:43:38;;;;;;;;;;;;;;;;;;5026154;28;19936;-74
2022/07/18 17:46:06;;;;;;;;;;;;;;;;;;5039163;28;20113;-75
2022/07/18 17:48:33;;;;;;;;;;;;;;;;;;5042667;28;19933;-72
2022/07/18 17:51:00;;;;;;;;;;;;;;;;;;5038210;28;19935;-74
2022/07/18 17:53:27;;;;;;;;;;;;;;;;;;5032335;28;19933;-75
2022/07/18 17:55:55;;;;;;;;;;;;;;;;;;5037547;28;20084;-74
2022/07/18 17:58:22;;;;;;;;;;;;;;;;;;5038455;28;20055;-75
2022/07/18 18:00:49;;;;;;;;;;;;;;;;;;5045128;28;19932;-75
2022/07/18 18:03:17;;;;;;;;;;;;;;;;;;5034561;28;19928;-74
2022/07/18 18:05:44;;;;;;;;;;;;;;;;;;5040397;28;20238;-73
2022/07/18 18:08:14;;;;;;;;;;;;;;;;;;5039557;28;19928;-74
2022/07/18 18:10:42;;;;;;;;;;;;;;;;;;5047552;28;19928;-72
2022/07/18 18:13:09;;;;;;;;;;;;;;;;;;5043652;28;19936;-75
2022/07/18 18:15:36;;;;;;;;;;;;;;;;;;5042923;28;19928;-74
2022/07/18 18:18:05;;;;;;;;;;;;;;;;;;5044580;28;19940;-74
2022/07/18 18:20:33;;;;;;;;;;;;;;;;;;5046456;28;20021;-74
2022/07/18 18:23:00;;;;;;;;;;;;;;;;;;5043426;28;20018;-73
2022/07/18 18:25:27;;;;;;;;;;;;;;;;;;5046783;28;20279;-72
2022/07/18 18:27:54;;;;;;;;;;;;;;;;;;5044324;28;20354;-73
2022/07/18 18:30:22;;;;;;;;;;;;;;;;;;5045576;28;19936;-75
2022/07/18 18:32:49;;;;;;;;;;;;;;;;;;5046566;28;19932;-75
2022/07/18 18:35:18;;;;;;;;;;;;;;;;;;5047294;28;19928;-74
2022/07/18 18:37:45;;;;;;;;;;;;;;;;;;5038915;28;19972;-76
2022/07/18 18:40:12;;;;;;;;;;;;;;;;;;5039508;28;20035;-75
2022/07/18 18:42:39;;;;;;;;;;;;;;;;;;5039467;28;19943;-73